createdAt,value
2023-03-01T00:00:08.868Z,101817.77
2023-03-01T00:02:20.699Z,101815.53
2023-03-01T00:04:12.438Z,101815.25
2023-03-01T00:06:04.860Z,101817.50
2023-03-01T00:07:56.727Z,101825.32
2023-03-01T00:09:48.358Z,101826.59
2023-03-01T00:11:40.117Z,101826.55
2023-03-01T00:13:31.837Z,101824.36
2023-03-01T00:15:23.486Z,101829.61
2023-03-01T00:17:14.613Z,101826.61
2023-03-01T00:19:07.894Z,101825.62
2023-03-01T00:20:59.559Z,101821.95
2023-03-01T00:22:50.813Z,101823.23
2023-03-01T00:24:41.960Z,101818.71
2023-03-01T00:26:33.601Z,101822.38
2023-03-01T00:28:25.262Z,101821.50
2023-03-01T00:30:16.865Z,101818.39
2023-03-01T00:32:08.581Z,101815.98
2023-03-01T00:34:02.763Z,101816.09
2023-03-01T00:35:53.985Z,101811.55
2023-03-01T00:37:45.717Z,101808.02
2023-03-01T00:39:37.543Z,101810.67
2023-03-01T00:41:29.489Z,101808.99
2023-03-01T00:43:21.046Z,101796.82
2023-03-01T00:45:14.604Z,101795.94
2023-03-01T00:47:06.067Z,101792.31
2023-03-01T00:48:57.398Z,101796.58
2023-03-01T00:50:48.572Z,101795.66
2023-03-01T00:52:40.406Z,101794.52
2023-03-01T00:54:31.959Z,101796.20
2023-03-01T00:56:24.169Z,101794.20
2023-03-01T00:58:15.818Z,101790.13
2023-03-01T01:00:10.677Z,101787.70
2023-03-01T01:02:02.441Z,101782.70
2023-03-01T01:03:59.615Z,101782.73
2023-03-01T01:05:52.024Z,101784.36
2023-03-01T01:07:43.246Z,101780.23
2023-03-01T01:09:35.410Z,101776.98
2023-03-01T01:11:29.909Z,101778.44
2023-03-01T01:13:22.676Z,101777.55
2023-03-01T01:15:17.556Z,101778.23
2023-03-01T01:17:10.486Z,101774.05
2023-03-01T01:19:02.567Z,101777.64
2023-03-01T01:20:53.988Z,101777.06
2023-03-01T01:22:45.540Z,101783.38
2023-03-01T01:24:37.593Z,101781.70
2023-03-01T01:26:32.264Z,101776.52
2023-03-01T01:28:24.084Z,101774.50
2023-03-01T01:30:15.381Z,101771.62
2023-03-01T01:32:06.654Z,101766.40
2023-03-01T01:33:58.384Z,101765.89
2023-03-01T01:35:49.867Z,101763.08
2023-03-01T01:37:40.926Z,101763.92
2023-03-01T01:39:32.184Z,101763.78
2023-03-01T01:41:25.278Z,101758.16
2023-03-01T01:43:29.448Z,101753.22
2023-03-01T01:45:46.172Z,101753.19
2023-03-01T01:47:38.094Z,101755.34
2023-03-01T01:49:33.696Z,101750.66
2023-03-01T01:52:47.539Z,101752.92
2023-03-01T01:54:52.596Z,101749.51
2023-03-01T01:56:46.520Z,101747.66
2023-03-01T01:58:38.658Z,101743.41
2023-03-01T02:00:31.465Z,101740.46
2023-03-01T02:02:23.081Z,101735.29
2023-03-01T02:04:15.135Z,101734.83
2023-03-01T02:06:22.375Z,101739.51
2023-03-01T02:08:16.124Z,101742.09
2023-03-01T02:10:08.040Z,101737.31
2023-03-01T02:12:00.434Z,101733.83
2023-03-01T02:13:52.565Z,101732.41
2023-03-01T02:15:45.243Z,101736.13
2023-03-01T02:17:37.247Z,101740.31
2023-03-01T02:19:52.651Z,101746.48
2023-03-01T02:22:00.246Z,101742.23
2023-03-01T02:23:51.909Z,101746.46
2023-03-01T02:25:59.898Z,101741.05
2023-03-01T02:37:36.683Z,101741.51
2023-03-01T02:39:49.401Z,101740.45
2023-03-01T02:41:45.152Z,101742.48
2023-03-01T02:43:37.460Z,101748.87
2023-03-01T02:45:28.916Z,101749.15
2023-03-01T02:47:20.590Z,101747.45
2023-03-01T02:49:30.414Z,101744.26
2023-03-01T02:51:34.698Z,101743.42
2023-03-01T02:53:49.516Z,101747.90
2023-03-01T02:55:41.545Z,101751.81
2023-03-01T02:57:34.607Z,101744.52
2023-03-01T02:59:32.021Z,101747.45
2023-03-01T03:01:23.513Z,101746.77
2023-03-01T03:03:17.465Z,101749.30
2023-03-01T03:05:13.759Z,101745.56
2023-03-01T03:07:05.190Z,101745.33
2023-03-01T03:08:56.791Z,101750.96
2023-03-01T03:10:48.613Z,101745.48
2023-03-01T03:12:40.256Z,101743.78
2023-03-01T03:14:35.968Z,101745.70
2023-03-01T03:16:27.470Z,101741.45
2023-03-01T03:18:19.941Z,101745.38
2023-03-01T03:20:18.211Z,101745.45
2023-03-01T03:22:10.222Z,101746.19
2023-03-01T03:24:02.108Z,101743.39
2023-03-01T03:25:53.480Z,101741.95
2023-03-01T03:27:46.348Z,101738.48
2023-03-01T03:29:38.271Z,101737.38
2023-03-01T03:31:30.181Z,101734.25
2023-03-01T03:33:21.758Z,101733.29
2023-03-01T03:35:13.419Z,101730.13
2023-03-01T03:37:25.185Z,101726.52
2023-03-01T03:39:18.274Z,101724.25
2023-03-01T03:41:11.121Z,101723.17
2023-03-01T03:43:04.070Z,101721.75
2023-03-01T03:44:55.890Z,101722.51
2023-03-01T03:46:47.853Z,101720.32
2023-03-01T03:48:42.434Z,101721.23
2023-03-01T03:50:34.357Z,101718.13
2023-03-01T03:52:26.150Z,101718.09
2023-03-01T03:54:18.257Z,101710.41
2023-03-01T03:56:10.218Z,101703.55
2023-03-01T03:58:08.081Z,101705.77
2023-03-01T04:00:00.089Z,101704.69
2023-03-01T04:01:52.093Z,101703.76
2023-03-01T04:03:47.666Z,101703.15
2023-03-01T04:05:40.452Z,101702.75
2023-03-01T04:07:32.146Z,101700.55
2023-03-01T04:09:23.945Z,101695.39
2023-03-01T04:11:27.895Z,101697.61
2023-03-01T04:13:21.844Z,101697.19
2023-03-01T04:15:14.211Z,101695.30
2023-03-01T04:17:06.386Z,101696.50
2023-03-01T04:19:00.793Z,101698.71
2023-03-01T04:20:56.525Z,101700.54
2023-03-01T06:01:52.463Z,101714.27
2023-03-01T06:03:44.777Z,101714.34
2023-03-01T06:05:36.662Z,101716.34
2023-03-01T06:07:28.497Z,101717.23
2023-03-01T06:09:20.275Z,101719.77
2023-03-01T06:11:11.916Z,101720.23
2023-03-01T06:13:03.650Z,101722.25
2023-03-01T06:14:55.196Z,101721.17
2023-03-01T06:16:46.897Z,101719.70
2023-03-01T06:18:39.288Z,101721.54
2023-03-01T06:20:31.124Z,101722.40
2023-03-01T06:22:23.161Z,101717.02
2023-03-01T06:24:14.958Z,101715.41
2023-03-01T06:26:08.646Z,101711.64
2023-03-01T06:28:00.408Z,101705.98
2023-03-01T06:29:52.178Z,101705.34
2023-03-01T06:31:43.531Z,101703.41
2023-03-01T06:33:35.714Z,101709.34
2023-03-01T06:35:31.114Z,101705.18
2023-03-01T06:37:22.775Z,101701.50
2023-03-01T06:39:14.409Z,101699.58
2023-03-01T06:41:05.940Z,101700.31
2023-03-01T06:42:58.376Z,101702.47
2023-03-01T06:44:50.303Z,101698.89
2023-03-01T06:46:42.785Z,101694.40
2023-03-01T06:48:35.131Z,101693.63
2023-03-01T06:50:27.130Z,101689.77
2023-03-01T06:52:18.794Z,101684.00
2023-03-01T06:54:10.850Z,101688.79
2023-03-01T06:56:02.744Z,101685.71
2023-03-01T06:57:58.179Z,101687.34
2023-03-01T06:59:49.951Z,101685.95
2023-03-01T07:01:41.879Z,101686.09
2023-03-01T07:03:34.015Z,101685.18
2023-03-01T07:05:25.625Z,101692.94
2023-03-01T07:07:19.157Z,101690.39
2023-03-01T07:09:10.976Z,101693.59
2023-03-01T07:11:04.404Z,101692.52
2023-03-01T07:12:58.011Z,101697.57
2023-03-01T07:14:49.525Z,101699.45
2023-03-01T07:16:41.033Z,101707.03
2023-03-01T07:18:33.108Z,101707.73
2023-03-01T07:20:26.765Z,101702.98
2023-03-01T07:22:18.619Z,101706.48
2023-03-01T07:24:16.519Z,101706.27
2023-03-01T07:26:08.146Z,101700.39
2023-03-01T07:27:59.811Z,101702.80
2023-03-01T07:29:50.890Z,101693.82
2023-03-01T07:31:42.673Z,101699.14
2023-03-01T07:33:33.943Z,101693.70
2023-03-01T07:35:27.162Z,101693.46
2023-03-01T07:37:18.853Z,101689.94
2023-03-01T07:39:11.612Z,101686.20
2023-03-01T07:41:04.225Z,101687.64
2023-03-01T07:42:57.596Z,101681.80
2023-03-01T07:44:49.286Z,101680.02
2023-03-01T07:46:40.525Z,101678.38
2023-03-01T07:48:33.342Z,101677.44
2023-03-01T07:50:24.713Z,101677.63
2023-03-01T07:52:16.374Z,101676.24
2023-03-01T07:54:08.150Z,101673.56
2023-03-01T07:56:07.880Z,101674.60
2023-03-01T07:57:59.575Z,101676.92
2023-03-01T07:59:50.890Z,101676.11
2023-03-01T08:01:42.617Z,101675.80
2023-03-01T08:03:35.219Z,101677.64
2023-03-01T08:05:26.895Z,101676.16
2023-03-01T08:07:18.591Z,101673.80
2023-03-01T08:09:10.480Z,101666.30
2023-03-01T08:11:03.528Z,101665.28
2023-03-01T08:12:54.997Z,101658.80
2023-03-01T08:14:46.553Z,101655.02
2023-03-01T08:16:37.908Z,101652.52
2023-03-01T08:18:29.833Z,101647.77
2023-03-01T08:20:21.955Z,101648.63
2023-03-01T08:22:13.570Z,101648.14
2023-03-01T08:24:07.030Z,101651.34
2023-03-01T08:26:13.294Z,101648.94
2023-03-01T08:28:05.132Z,101649.50
2023-03-01T08:29:56.506Z,101655.01
2023-03-01T08:31:48.927Z,101655.75
2023-03-01T08:33:40.523Z,101658.00
2023-03-01T08:35:32.330Z,101658.73
2023-03-01T08:37:23.801Z,101660.20
2023-03-01T08:39:17.748Z,101652.41
2023-03-01T08:41:09.106Z,101650.66
2023-03-01T08:43:00.781Z,101653.61
2023-03-01T08:44:52.584Z,101661.61
2023-03-01T08:46:45.008Z,101660.23
2023-03-01T08:48:36.369Z,101666.71
2023-03-01T08:50:28.094Z,101670.95
2023-03-01T08:54:40.575Z,101668.98
2023-03-01T08:56:30.701Z,101665.58
2023-03-01T08:58:20.903Z,101662.46
2023-03-01T09:00:11.662Z,101660.08
2023-03-01T09:02:02.467Z,101658.25
2023-03-01T09:03:53.212Z,101661.17
2023-03-01T09:05:46.308Z,101660.61
2023-03-01T09:07:36.589Z,101651.95
2023-03-01T09:09:27.146Z,101651.70
2023-03-01T09:11:20.247Z,101653.91
2023-03-01T09:13:10.947Z,101651.41
2023-03-01T09:15:01.231Z,101652.10
2023-03-01T09:16:52.133Z,101651.52
2023-03-01T09:18:42.441Z,101652.36
2023-03-01T09:20:33.115Z,101652.77
2023-03-01T09:22:23.570Z,101648.38
2023-03-01T09:24:15.068Z,101645.07
2023-03-01T09:36:15.977Z,101641.95
2023-03-01T09:38:07.940Z,101639.68
2023-03-01T09:39:59.512Z,101641.65
2023-03-01T09:42:01.173Z,101638.43
2023-03-01T09:43:57.933Z,101633.96
2023-03-01T09:45:52.176Z,101636.03
2023-03-01T09:47:44.176Z,101633.13
2023-03-01T09:49:38.110Z,101635.88
2023-03-01T09:51:35.480Z,101631.33
2023-03-01T09:53:33.400Z,101632.32
2023-03-01T09:55:33.050Z,101636.66
2023-03-01T09:57:37.873Z,101631.13
2023-03-01T10:00:10.493Z,101629.33
2023-03-01T10:02:06.303Z,101633.14
2023-03-01T10:04:10.472Z,101630.39
2023-03-01T10:06:04.986Z,101626.92
2023-03-01T10:08:03.898Z,101626.10
2023-03-01T10:09:55.812Z,101617.98
2023-03-01T10:11:51.130Z,101623.77
2023-03-01T10:14:00.791Z,101626.77
2023-03-01T10:15:57.217Z,101619.83
2023-03-01T10:18:08.824Z,101617.92
2023-03-01T10:20:22.635Z,101617.30
2023-03-01T10:22:29.507Z,101616.20
2023-03-01T10:24:22.796Z,101615.72
2023-03-01T10:26:46.086Z,101612.43
2023-03-01T10:28:46.811Z,101609.13
2023-03-01T10:30:42.652Z,101607.63
2023-03-01T10:32:34.944Z,101599.95
2023-03-01T10:34:30.709Z,101596.48
2023-03-01T10:36:23.721Z,101594.19
2023-03-01T10:38:17.303Z,101597.79
2023-03-01T10:40:10.851Z,101597.20
2023-03-01T10:42:06.420Z,101591.13
2023-03-01T10:44:01.319Z,101586.50
2023-03-01T10:45:52.852Z,101581.27
2023-03-01T10:47:48.239Z,101582.37
2023-03-01T10:49:39.976Z,101582.50
2023-03-01T10:51:32.262Z,101582.70
2023-03-01T10:53:27.451Z,101577.83
2023-03-01T10:55:40.734Z,101575.04
2023-03-01T10:57:41.305Z,101577.55
2023-03-01T10:59:39.474Z,101571.42
2023-03-01T11:01:34.624Z,101571.52
2023-03-01T11:03:26.795Z,101573.73
2023-03-01T11:05:22.533Z,101567.77
2023-03-01T11:07:14.011Z,101569.27
2023-03-01T11:09:23.012Z,101565.50
2023-03-01T11:11:23.832Z,101559.16
2023-03-01T11:13:18.268Z,101560.95
2023-03-01T11:15:22.221Z,101555.27
2023-03-01T11:17:18.410Z,101557.08
2023-03-01T11:19:10.206Z,101557.30
2023-03-01T11:21:03.156Z,101556.46
2023-03-01T11:22:56.929Z,101558.38
2023-03-01T11:25:07.139Z,101556.59
2023-03-01T11:27:04.253Z,101558.42
2023-03-01T11:28:59.134Z,101559.36
2023-03-01T11:31:08.997Z,101555.77
2023-03-01T11:33:18.276Z,101553.23
2023-03-01T11:35:36.758Z,101552.13
2023-03-01T11:37:46.966Z,101552.11
2023-03-01T11:39:42.644Z,101553.13
2023-03-01T11:41:37.779Z,101550.34
2023-03-01T11:43:42.363Z,101548.36
2023-03-01T11:45:50.762Z,101548.44
2023-03-01T11:48:04.372Z,101548.91
2023-03-01T11:50:07.194Z,101545.95
2023-03-01T11:52:18.488Z,101547.02
2023-03-01T11:54:22.224Z,101543.77
2023-03-01T11:56:35.047Z,101545.55
2023-03-01T11:58:47.916Z,101544.98
2023-03-01T12:00:51.954Z,101535.83
2023-03-01T12:02:52.527Z,101527.65
2023-03-01T12:04:53.234Z,101529.92
2023-03-01T12:06:58.406Z,101529.90
2023-03-01T12:09:17.880Z,101530.88
2023-03-01T12:11:24.114Z,101529.81
2023-03-01T12:13:21.883Z,101526.02
2023-03-01T12:15:50.788Z,101526.59
2023-03-01T12:18:29.504Z,101523.84
2023-03-01T12:20:23.761Z,101516.02
2023-03-01T12:22:22.926Z,101518.17
2023-03-01T12:24:34.059Z,101512.89
2023-03-01T12:26:36.069Z,101509.86
2023-03-01T12:28:39.648Z,101510.70
2023-03-01T12:30:40.141Z,101509.27
2023-03-01T12:32:36.620Z,101504.94
2023-03-01T12:34:54.229Z,101501.17
2023-03-01T12:37:15.867Z,101505.89
2023-03-01T12:39:22.893Z,101502.52
2023-03-01T12:51:21.180Z,101483.42
2023-03-01T12:53:26.967Z,101477.95
2023-03-01T12:55:26.923Z,101477.39
2023-03-01T12:57:43.277Z,101474.96
2023-03-01T13:00:08.472Z,101476.86
2023-03-01T13:02:06.199Z,101468.61
2023-03-01T13:04:11.583Z,101466.86
2023-03-01T13:06:13.293Z,101460.63
2023-03-01T13:08:14.043Z,101460.86
2023-03-01T13:10:24.817Z,101458.33
2023-03-01T13:12:49.228Z,101461.56
2023-03-01T13:14:45.753Z,101461.06
2023-03-01T13:16:38.557Z,101459.70
2023-03-01T13:18:30.493Z,101460.23
2023-03-01T13:20:25.237Z,101459.25
2023-03-01T13:22:33.482Z,101457.33
2023-03-01T13:24:43.144Z,101460.02
2023-03-01T13:26:34.184Z,101456.02
2023-03-01T13:39:00.438Z,101460.19
2023-03-01T13:40:51.820Z,101456.57
2023-03-01T13:42:56.254Z,101456.80
2023-03-01T13:44:54.960Z,101454.67
2023-03-01T13:46:47.456Z,101454.35
2023-03-01T13:48:39.839Z,101450.02
2023-03-01T13:50:40.314Z,101448.73
2023-03-01T13:52:36.083Z,101442.61
2023-03-01T13:54:31.488Z,101435.27
2023-03-01T13:56:29.400Z,101433.94
2023-03-01T13:58:33.140Z,101432.17
2023-03-01T14:00:33.726Z,101431.49
2023-03-01T14:02:25.318Z,101430.79
2023-03-01T14:04:26.927Z,101427.56
2023-03-01T14:06:22.897Z,101422.42
2023-03-01T14:08:26.192Z,101416.30
2023-03-01T14:10:18.963Z,101417.94
2023-03-01T14:12:48.208Z,101412.02
2023-03-01T14:14:45.856Z,101412.73
2023-03-01T14:16:55.790Z,101410.42
2023-03-01T14:18:59.751Z,101407.98
2023-03-01T14:20:53.826Z,101406.56
2023-03-01T14:22:46.276Z,101401.69
2023-03-01T14:24:41.743Z,101403.20
2023-03-01T14:26:34.827Z,101400.44
2023-03-01T14:28:30.147Z,101393.36
2023-03-01T14:30:34.839Z,101393.95
2023-03-01T14:32:29.238Z,101389.33
2023-03-01T14:34:23.822Z,101389.63
2023-03-01T14:36:15.405Z,101389.29
2023-03-01T14:38:07.443Z,101385.44
2023-03-01T14:40:01.222Z,101385.07
2023-03-01T14:41:53.417Z,101384.08
2023-03-01T14:43:46.524Z,101383.11
2023-03-01T14:45:38.144Z,101375.26
2023-03-01T14:47:31.522Z,101370.03
2023-03-01T14:49:25.660Z,101366.30
2023-03-01T14:51:17.388Z,101366.65
2023-03-01T14:53:17.752Z,101364.34
2023-03-01T14:55:27.478Z,101367.45
2023-03-01T14:57:24.643Z,101364.24
2023-03-01T14:59:16.512Z,101364.27
2023-03-01T15:01:09.718Z,101362.12
2023-03-01T15:03:10.903Z,101366.40
2023-03-01T15:05:09.172Z,101364.16
2023-03-01T15:07:06.388Z,101363.52
2023-03-01T15:08:59.023Z,101365.35
2023-03-01T15:10:59.663Z,101363.70
2023-03-01T15:12:53.379Z,101364.20
2023-03-01T15:14:52.178Z,101365.30
2023-03-01T15:16:50.489Z,101367.86
2023-03-01T15:18:51.453Z,101365.71
2023-03-01T15:20:43.299Z,101367.37
2023-03-01T15:22:36.141Z,101371.92
2023-03-01T15:24:29.917Z,101372.27
2023-03-01T15:26:34.254Z,101371.38
2023-03-01T15:28:27.359Z,101369.94
2023-03-01T15:30:22.979Z,101370.02
2023-03-01T15:32:31.405Z,101366.23
2023-03-01T15:34:29.190Z,101365.62
2023-03-01T15:36:32.456Z,101365.09
2023-03-01T15:38:50.599Z,101362.69
2023-03-01T15:40:50.557Z,101363.36
2023-03-01T15:42:42.205Z,101362.97
2023-03-01T15:44:43.377Z,101360.63
2023-03-01T15:46:38.782Z,101358.98
2023-03-01T15:48:30.463Z,101360.80
2023-03-01T15:50:57.976Z,101353.03
2023-03-01T15:52:50.566Z,101360.16
2023-03-01T15:54:42.078Z,101363.81
2023-03-01T15:56:33.913Z,101365.80
2023-03-01T15:58:26.021Z,101370.30
2023-03-01T16:00:18.564Z,101373.73
2023-03-01T16:02:13.560Z,101374.52
2023-03-01T16:04:05.475Z,101376.23
2023-03-01T16:05:57.161Z,101379.15
2023-03-01T16:07:48.745Z,101376.79
2023-03-01T16:09:40.122Z,101379.44
2023-03-01T16:11:33.678Z,101379.75
2023-03-01T16:13:28.358Z,101387.80
2023-03-01T16:15:23.863Z,101390.99
2023-03-01T16:17:16.543Z,101384.55
2023-03-01T16:19:08.218Z,101388.38
2023-03-01T16:21:00.586Z,101388.67
2023-03-01T16:22:52.360Z,101389.60
2023-03-01T16:24:44.032Z,101387.98
2023-03-01T16:26:37.200Z,101384.55
2023-03-01T16:28:30.227Z,101381.32
2023-03-01T16:30:23.377Z,101379.65
2023-03-01T16:32:15.345Z,101383.74
2023-03-01T16:34:07.167Z,101385.86
2023-03-01T16:36:01.230Z,101386.61
2023-03-01T16:37:55.071Z,101389.23
2023-03-01T16:39:46.949Z,101388.77
2023-03-01T16:41:38.239Z,101392.17
2023-03-01T16:43:31.570Z,101390.83
2023-03-01T16:45:24.917Z,101390.38
2023-03-01T16:47:16.726Z,101392.15
2023-03-01T16:49:08.697Z,101395.56
2023-03-01T16:51:01.432Z,101398.53
2023-03-01T16:52:53.054Z,101399.10
2023-03-01T16:54:44.718Z,101402.30
2023-03-01T16:56:38.600Z,101402.45
2023-03-01T16:58:30.489Z,101407.42
2023-03-01T17:09:49.284Z,101414.41
2023-03-01T17:11:39.376Z,101410.39
2023-03-01T17:13:30.063Z,101411.55
2023-03-01T17:15:20.468Z,101410.80
2023-03-01T17:17:11.573Z,101410.50
2023-03-01T17:19:02.656Z,101413.29
2023-03-01T17:20:53.160Z,101416.69
2023-03-01T17:22:43.504Z,101415.77
2023-03-01T17:24:38.001Z,101420.63
2023-03-01T17:26:30.457Z,101422.02
2023-03-01T17:28:25.551Z,101420.23
2023-03-01T17:30:16.115Z,101423.79
2023-03-01T17:32:07.207Z,101424.16
2023-03-01T17:33:59.859Z,101422.63
2023-03-01T17:35:51.333Z,101423.02
2023-03-01T17:37:45.823Z,101420.38
2023-03-01T17:39:37.099Z,101420.52
2023-03-01T17:41:28.089Z,101422.06
2023-03-01T17:43:19.520Z,101417.95
2023-03-01T17:45:10.110Z,101412.52
2023-03-01T17:47:02.051Z,101412.48
2023-03-01T17:48:52.444Z,101412.95
2023-03-01T17:50:42.911Z,101409.66
2023-03-01T17:52:33.712Z,101413.58
2023-03-01T17:54:24.406Z,101411.56
2023-03-01T17:56:15.549Z,101409.90
2023-03-01T17:58:06.671Z,101412.85
2023-03-01T17:59:57.032Z,101411.84
2023-03-01T18:01:47.608Z,101409.41
2023-03-01T18:03:37.965Z,101405.17
2023-03-01T18:05:34.734Z,101408.23
2023-03-01T18:07:26.714Z,101414.23
2023-03-01T18:09:17.479Z,101415.90
2023-03-01T18:11:09.257Z,101419.33
2023-03-01T18:13:00.057Z,101417.35
2023-03-01T18:14:53.053Z,101419.25
2023-03-01T18:16:43.551Z,101422.08
2023-03-01T18:18:34.065Z,101421.61
2023-03-01T18:20:24.534Z,101421.25
2023-03-01T18:22:15.485Z,101416.53
2023-03-01T18:24:06.105Z,101416.83
2023-03-01T18:26:10.308Z,101410.84
2023-03-01T18:28:00.977Z,101408.52
2023-03-01T18:29:51.796Z,101410.20
2023-03-01T18:31:42.663Z,101408.39
2023-03-01T18:33:32.827Z,101403.86
2023-03-01T18:35:23.545Z,101405.64
2023-03-01T18:37:14.111Z,101404.33
2023-03-01T18:39:06.227Z,101405.11
2023-03-01T18:40:57.016Z,101403.92
2023-03-01T18:42:47.245Z,101409.98
2023-03-01T18:44:38.057Z,101409.15
2023-03-01T18:46:28.578Z,101412.15
2023-03-01T18:48:19.195Z,101410.92
2023-03-01T18:50:10.782Z,101403.44
2023-03-01T18:52:01.334Z,101403.56
2023-03-01T18:53:51.458Z,101400.13
2023-03-01T18:55:41.938Z,101398.05
2023-03-01T18:57:32.082Z,101398.33
2023-03-01T18:59:22.552Z,101392.50
2023-03-01T19:01:18.073Z,101388.96
2023-03-01T19:03:10.703Z,101387.58
2023-03-01T19:05:01.029Z,101384.30
2023-03-01T19:06:51.084Z,101384.84
2023-03-01T19:08:42.549Z,101375.07
2023-03-01T19:10:32.445Z,101384.47
2023-03-01T19:12:22.877Z,101386.32
2023-03-01T19:14:12.936Z,101390.52
2023-03-01T19:16:10.111Z,101394.11
2023-03-01T19:18:01.506Z,101395.41
2023-03-01T19:19:51.730Z,101390.17
2023-03-01T19:21:42.049Z,101394.45
2023-03-01T19:23:36.198Z,101397.60
2023-03-01T19:25:26.636Z,101392.74
2023-03-01T19:27:17.146Z,101396.92
2023-03-01T19:29:10.189Z,101398.30
2023-03-01T19:31:02.588Z,101398.17
2023-03-01T19:32:53.772Z,101392.48
2023-03-01T19:34:46.097Z,101388.39
2023-03-01T19:36:36.434Z,101386.22
2023-03-01T19:38:28.401Z,101386.89
2023-03-01T19:40:18.977Z,101387.86
2023-03-01T19:42:11.088Z,101387.40
2023-03-01T19:44:04.002Z,101383.52
2023-03-01T19:45:55.142Z,101387.54
2023-03-01T19:47:47.467Z,101386.96
2023-03-01T19:49:37.644Z,101390.81
2023-03-01T19:51:28.241Z,101385.37
2023-03-01T19:53:18.676Z,101395.14
2023-03-01T19:55:10.141Z,101394.91
2023-03-01T19:57:00.711Z,101393.98
2023-03-01T19:58:59.636Z,101397.52
2023-03-01T20:00:56.663Z,101396.08
2023-03-01T20:02:47.008Z,101397.44
2023-03-01T20:04:37.474Z,101397.24
2023-03-01T20:06:29.433Z,101396.70
2023-03-01T20:08:19.577Z,101400.23
2023-03-01T20:10:10.890Z,101401.45
2023-03-01T20:12:00.890Z,101407.68
2023-03-01T20:13:50.859Z,101407.81
2023-03-01T20:15:43.185Z,101404.70
2023-03-01T20:17:33.230Z,101401.20
2023-03-01T20:19:23.626Z,101400.20
2023-03-01T20:21:24.771Z,101397.95
2023-03-01T20:23:15.804Z,101396.80
2023-03-01T20:25:07.198Z,101399.45
2023-03-01T20:26:58.134Z,101405.75
2023-03-01T20:28:50.498Z,101402.89
2023-03-01T20:30:41.054Z,101400.89
2023-03-01T20:32:32.744Z,101396.52
2023-03-01T20:34:22.954Z,101398.01
2023-03-01T20:36:13.095Z,101397.27
2023-03-01T20:38:03.687Z,101396.11
2023-03-01T20:39:54.748Z,101389.66
2023-03-01T20:41:55.350Z,101388.41
2023-03-01T20:43:53.586Z,101391.84
2023-03-01T20:45:44.128Z,101391.49
2023-03-01T20:47:34.623Z,101387.91
2023-03-01T20:49:25.128Z,101382.85
2023-03-01T20:51:15.875Z,101382.77
2023-03-01T20:53:06.267Z,101380.36
2023-03-01T20:54:56.348Z,101378.79
2023-03-01T20:56:47.012Z,101377.11
2023-03-01T20:58:38.082Z,101374.74
2023-03-01T21:00:28.798Z,101377.36
2023-03-01T21:02:19.043Z,101380.23
2023-03-01T21:04:09.383Z,101383.89
2023-03-01T21:06:01.772Z,101385.72
2023-03-01T21:07:51.829Z,101383.98
2023-03-01T21:09:44.134Z,101385.26
2023-03-01T21:11:34.491Z,101385.10
2023-03-01T21:13:26.313Z,101383.44
2023-03-01T21:15:28.385Z,101385.59
2023-03-01T21:17:19.338Z,101386.55
2023-03-01T21:19:10.444Z,101388.46
2023-03-01T21:21:05.157Z,101388.77
2023-03-01T21:22:55.394Z,101384.70
2023-03-01T21:24:45.562Z,101381.42
2023-03-01T21:26:36.081Z,101384.86
2023-03-01T21:28:26.887Z,101387.42
2023-03-01T21:30:17.284Z,101387.56
2023-03-01T21:32:08.345Z,101382.33
2023-03-01T21:33:59.649Z,101382.55
2023-03-01T21:35:49.944Z,101377.10
2023-03-01T21:37:40.329Z,101382.20
2023-03-01T21:39:30.783Z,101380.23
2023-03-01T21:41:26.098Z,101380.45
2023-03-01T21:43:16.558Z,101380.88
2023-03-01T21:45:07.220Z,101380.10
2023-03-01T21:46:58.375Z,101378.04
2023-03-01T21:48:49.476Z,101375.66
2023-03-01T21:50:39.562Z,101370.63
2023-03-01T21:52:29.501Z,101369.98
2023-03-01T21:54:19.768Z,101371.98
2023-03-01T21:56:15.079Z,101366.24
2023-03-01T21:58:05.373Z,101365.84
2023-03-01T21:59:55.465Z,101369.27
2023-03-01T22:01:46.204Z,101368.70
2023-03-01T22:03:44.533Z,101373.40
2023-03-01T22:05:34.740Z,101371.24
2023-03-01T22:07:24.884Z,101370.61
2023-03-01T22:09:16.103Z,101371.60
2023-03-01T22:11:06.201Z,101368.97
2023-03-01T22:12:57.137Z,101367.70
2023-03-01T22:14:47.379Z,101372.23
2023-03-01T22:16:39.359Z,101370.92
2023-03-01T22:18:29.494Z,101368.08
2023-03-01T22:20:19.767Z,101361.81
2023-03-01T22:22:09.871Z,101363.17
2023-03-01T22:24:00.001Z,101361.79
2023-03-01T22:25:50.160Z,101367.39
2023-03-01T22:27:40.173Z,101369.15
2023-03-01T22:29:30.359Z,101363.87
2023-03-01T22:31:20.746Z,101360.59
2023-03-01T22:33:10.798Z,101360.13
2023-03-01T22:35:00.622Z,101356.58
2023-03-01T22:36:50.728Z,101353.50
2023-03-01T22:38:41.258Z,101350.52
2023-03-01T22:40:31.273Z,101349.14
2023-03-01T22:42:21.185Z,101347.65
2023-03-01T22:44:13.054Z,101344.77
2023-03-01T22:46:15.168Z,101345.98
2023-03-01T22:48:05.389Z,101349.84
2023-03-01T22:49:56.001Z,101352.17
2023-03-01T22:51:46.876Z,101355.69
2023-03-01T22:53:37.368Z,101349.86
2023-03-01T22:55:28.850Z,101346.10
2023-03-01T22:57:18.805Z,101353.45
2023-03-01T22:59:11.434Z,101349.98
2023-03-01T23:01:01.580Z,101357.06
2023-03-01T23:02:52.117Z,101354.19
2023-03-01T23:04:43.294Z,101351.55
2023-03-01T23:06:34.100Z,101355.02
2023-03-01T23:08:24.778Z,101357.50
2023-03-01T23:10:15.383Z,101355.17
2023-03-01T23:12:06.896Z,101354.91
2023-03-01T23:15:08.455Z,101356.95
2023-03-01T23:17:02.990Z,101353.45
2023-03-01T23:18:56.140Z,101351.36
2023-03-01T23:20:47.576Z,101347.65
2023-03-01T23:22:39.433Z,101349.09
2023-03-01T23:24:32.037Z,101348.62
2023-03-01T23:26:27.168Z,101351.73
2023-03-01T23:28:18.720Z,101359.26
2023-03-01T23:30:10.762Z,101358.41
2023-03-01T23:32:03.526Z,101356.70
2023-03-01T23:33:55.205Z,101353.31
2023-03-01T23:35:46.616Z,101360.02
2023-03-01T23:37:38.435Z,101355.41
2023-03-01T23:39:33.342Z,101354.75
2023-03-01T23:41:27.784Z,101357.04
2023-03-01T23:43:19.098Z,101354.52
2023-03-01T23:45:11.137Z,101354.16
2023-03-01T23:47:03.548Z,101355.91
2023-03-01T23:48:56.146Z,101357.61
2023-03-01T23:50:48.457Z,101359.08
2023-03-01T23:52:41.822Z,101359.59
2023-03-01T23:54:33.395Z,101360.70
2023-03-01T23:56:27.415Z,101360.95
2023-03-01T23:58:20.180Z,101356.69
